<?xml version="1.0" encoding="UTF-8" standalone="no" ?>
<gpx xmlns="http://www.topografix.com/GPX/1/1" xmlns:xsi="http://www.w3.org/2001/XMLSchema-instance" xsi:schemaLocation="http://www.topografix.com/GPX/1/1 http://www.topografix.com/GPX/1/1/gpx.xsd" version="1.1" creator="VisuGPX - https://www.visugpx.com">
  <metadata>
    <name>14455720-Sagnes et Goudoulet - Ste Eulalie</name>
    <desc><![CDATA[variante Sagnes_et_Goudoulet_-_Ste_Eulalie-14455720-1648130012-610]]></desc>
  </metadata>
  <trk>
    <name><![CDATA[14455720-Sagnes et Goudoulet - Ste Eulalie]]></name>
    <trkseg>
      <trkpt lat="44.78993" lon="4.22517">
        <ele>1229</ele>
        <time>2022-03-24T13:53:32Z</time>
      </trkpt>
      <trkpt lat="44.7899" lon="4.22326">
        <ele>1222</ele>
        <time>2022-03-24T13:56:33Z</time>
      </trkpt>
      <trkpt lat="44.78812" lon="4.22168">
        <ele>1237</ele>
        <time>2022-03-24T14:01:14Z</time>
      </trkpt>
      <trkpt lat="44.7864" lon="4.21898">
        <ele>1248</ele>
        <time>2022-03-24T14:06:57Z</time>
      </trkpt>
      <trkpt lat="44.78736" lon="4.21923">
        <ele>1245</ele>
        <time>2022-03-24T14:09:08Z</time>
      </trkpt>
      <trkpt lat="44.78885" lon="4.2205">
        <ele>1247</ele>
        <time>2022-03-24T14:13:00Z</time>
      </trkpt>
      <trkpt lat="44.79079" lon="4.22031">
        <ele>1247</ele>
        <time>2022-03-24T14:17:19Z</time>
      </trkpt>
      <trkpt lat="44.7925" lon="4.21785">
        <ele>1242</ele>
        <time>2022-03-24T14:22:46Z</time>
      </trkpt>
      <trkpt lat="44.79384" lon="4.21683">
        <ele>1244</ele>
        <time>2022-03-24T14:26:09Z</time>
      </trkpt>
      <trkpt lat="44.79441" lon="4.21473">
        <ele>1247</ele>
        <time>2022-03-24T14:29:42Z</time>
      </trkpt>
      <trkpt lat="44.79508" lon="4.2129">
        <ele>1251</ele>
        <time>2022-03-24T14:32:57Z</time>
      </trkpt>
      <trkpt lat="44.79457" lon="4.20932">
        <ele>1258</ele>
        <time>2022-03-24T14:38:43Z</time>
      </trkpt>
      <trkpt lat="44.79562" lon="4.20652">
        <ele>1269</ele>
        <time>2022-03-24T14:43:42Z</time>
      </trkpt>
      <trkpt lat="44.79588" lon="4.20648">
        <ele>1271</ele>
        <time>2022-03-24T14:44:17Z</time>
      </trkpt>
      <trkpt lat="44.79757" lon="4.20453">
        <ele>1267</ele>
        <time>2022-03-24T14:49:09Z</time>
      </trkpt>
      <trkpt lat="44.79826" lon="4.20264">
        <ele>1262</ele>
        <time>2022-03-24T14:52:30Z</time>
      </trkpt>
      <trkpt lat="44.79888" lon="4.19932">
        <ele>1254</ele>
        <time>2022-03-24T14:57:55Z</time>
      </trkpt>
      <trkpt lat="44.7991" lon="4.19652">
        <ele>1238</ele>
        <time>2022-03-24T15:02:22Z</time>
      </trkpt>
      <trkpt lat="44.79881" lon="4.19626">
        <ele>1234</ele>
        <time>2022-03-24T15:03:08Z</time>
      </trkpt>
      <trkpt lat="44.79924" lon="4.19544">
        <ele>1231</ele>
        <time>2022-03-24T15:04:44Z</time>
      </trkpt>
      <trkpt lat="44.79846" lon="4.19361">
        <ele>1212</ele>
        <time>2022-03-24T15:08:06Z</time>
      </trkpt>
      <trkpt lat="44.79902" lon="4.19213">
        <ele>1199</ele>
        <time>2022-03-24T15:10:45Z</time>
      </trkpt>
      <trkpt lat="44.79975" lon="4.1907">
        <ele>1187</ele>
        <time>2022-03-24T15:13:32Z</time>
      </trkpt>
      <trkpt lat="44.8001" lon="4.18851">
        <ele>1199</ele>
        <time>2022-03-24T15:17:05Z</time>
      </trkpt>
      <trkpt lat="44.80091" lon="4.18682">
        <ele>1200</ele>
        <time>2022-03-24T15:20:18Z</time>
      </trkpt>
      <trkpt lat="44.80185" lon="4.186">
        <ele>1194</ele>
        <time>2022-03-24T15:22:45Z</time>
      </trkpt>
      <trkpt lat="44.80311" lon="4.18608">
        <ele>1185</ele>
        <time>2022-03-24T15:25:34Z</time>
      </trkpt>
      <trkpt lat="44.81017" lon="4.18924">
        <ele>1235</ele>
        <time>2022-03-24T15:42:02Z</time>
      </trkpt>
    </trkseg>
  </trk>
</gpx>